sensor_id;sensor_type;location;lat;lon;timestamp;P1;durP1;ratioP1;P2;durP2;ratioP2
15271;SDS011;7737;51.578;7.268;2022-08-19T00:00:33;7.15;;;5.80;;
15271;SDS011;7737;51.578;7.268;2022-08-19T00:03:00;6.60;;;6.05;;
15271;SDS011;7737;51.578;7.268;2022-08-19T00:05:26;6.80;;;6.20;;
15271;SDS011;7737;51.578;7.268;2022-08-19T00:07:53;6.93;;;6.32;;
15271;SDS011;7737;51.578;7.268;2022-08-19T00:10:20;7.00;;;6.32;;
15271;SDS011;7737;51.578;7.268;2022-08-19T00:12:49;6.82;;;6.13;;
15271;SDS011;7737;51.578;7.268;2022-08-19T00:15:16;7.40;;;5.65;;
15271;SDS011;7737;51.578;7.268;2022-08-19T00:17:44;6.00;;;5.45;;
15271;SDS011;7737;51.578;7.268;2022-08-19T00:20:12;6.35;;;5.32;;
15271;SDS011;7737;51.578;7.268;2022-08-19T00:22:42;6.65;;;5.75;;
15271;SDS011;7737;51.578;7.268;2022-08-19T00:25:09;5.93;;;5.43;;
15271;SDS011;7737;51.578;7.268;2022-08-19T00:27:37;7.20;;;5.82;;
15271;SDS011;7737;51.578;7.268;2022-08-19T00:30:04;7.05;;;6.28;;
15271;SDS011;7737;51.578;7.268;2022-08-19T00:32:32;6.53;;;6.03;;
15271;SDS011;7737;51.578;7.268;2022-08-19T00:34:59;7.18;;;6.47;;
15271;SDS011;7737;51.578;7.268;2022-08-19T00:37:26;7.00;;;6.40;;
15271;SDS011;7737;51.578;7.268;2022-08-19T00:39:54;7.03;;;6.32;;
15271;SDS011;7737;51.578;7.268;2022-08-19T00:42:21;7.57;;;6.90;;
15271;SDS011;7737;51.578;7.268;2022-08-19T00:44:49;7.13;;;6.40;;
15271;SDS011;7737;51.578;7.268;2022-08-19T00:47:16;8.07;;;6.47;;
15271;SDS011;7737;51.578;7.268;2022-08-19T00:49:43;6.55;;;6.05;;
15271;SDS011;7737;51.578;7.268;2022-08-19T00:52:17;6.68;;;6.18;;
15271;SDS011;7737;51.578;7.268;2022-08-19T00:54:47;6.30;;;5.80;;
15271;SDS011;7737;51.578;7.268;2022-08-19T00:57:15;7.03;;;6.32;;
15271;SDS011;7737;51.578;7.268;2022-08-19T00:59:46;6.53;;;6.00;;
15271;SDS011;7737;51.578;7.268;2022-08-19T01:02:18;7.25;;;6.65;;
15271;SDS011;7737;51.578;7.268;2022-08-19T01:04:45;7.20;;;6.60;;
15271;SDS011;7737;51.578;7.268;2022-08-19T01:07:12;7.10;;;6.50;;
15271;SDS011;7737;51.578;7.268;2022-08-19T01:09:38;7.60;;;7.00;;
15271;SDS011;7737;51.578;7.268;2022-08-19T01:12:06;7.18;;;6.53;;
15271;SDS011;7737;51.578;7.268;2022-08-19T01:14:33;6.85;;;6.22;;
15271;SDS011;7737;51.578;7.268;2022-08-19T01:17:01;7.53;;;6.80;;
15271;SDS011;7737;51.578;7.268;2022-08-19T01:19:30;7.32;;;6.63;;
15271;SDS011;7737;51.578;7.268;2022-08-19T01:22:02;8.00;;;6.78;;
15271;SDS011;7737;51.578;7.268;2022-08-19T01:24:36;6.47;;;5.78;;
15271;SDS011;7737;51.578;7.268;2022-08-19T01:27:03;6.68;;;6.00;;
15271;SDS011;7737;51.578;7.268;2022-08-19T01:29:30;7.13;;;6.43;;
15271;SDS011;7737;51.578;7.268;2022-08-19T01:31:57;7.90;;;6.55;;
15271;SDS011;7737;51.578;7.268;2022-08-19T01:34:25;7.60;;;6.90;;
15271;SDS011;7737;51.578;7.268;2022-08-19T01:36:51;7.72;;;7.13;;
15271;SDS011;7737;51.578;7.268;2022-08-19T01:39:18;7.65;;;6.95;;
15271;SDS011;7737;51.578;7.268;2022-08-19T01:41:51;8.52;;;7.70;;
15271;SDS011;7737;51.578;7.268;2022-08-19T01:44:20;9.13;;;8.27;;
15271;SDS011;7737;51.578;7.268;2022-08-19T01:46:49;7.75;;;7.05;;
15271;SDS011;7737;51.578;7.268;2022-08-19T01:49:17;8.15;;;7.15;;
15271;SDS011;7737;51.578;7.268;2022-08-19T01:51:46;7.78;;;7.18;;
15271;SDS011;7737;51.578;7.268;2022-08-19T01:54:13;8.07;;;7.35;;
15271;SDS011;7737;51.578;7.268;2022-08-19T01:56:41;8.13;;;7.50;;
15271;SDS011;7737;51.578;7.268;2022-08-19T01:59:10;8.25;;;7.50;;
15271;SDS011;7737;51.578;7.268;2022-08-19T02:01:39;8.90;;;8.20;;
15271;SDS011;7737;51.578;7.268;2022-08-19T02:04:06;8.38;;;7.68;;
15271;SDS011;7737;51.578;7.268;2022-08-19T02:06:32;8.25;;;7.35;;
15271;SDS011;7737;51.578;7.268;2022-08-19T02:08:59;8.80;;;8.00;;
15271;SDS011;7737;51.578;7.268;2022-08-19T02:11:27;7.95;;;7.35;;
15271;SDS011;7737;51.578;7.268;2022-08-19T02:13:56;7.55;;;6.97;;
15271;SDS011;7737;51.578;7.268;2022-08-19T02:16:26;7.43;;;6.82;;
15271;SDS011;7737;51.578;7.268;2022-08-19T02:18:52;8.02;;;7.15;;
15271;SDS011;7737;51.578;7.268;2022-08-19T02:21:20;7.90;;;7.25;;
15271;SDS011;7737;51.578;7.268;2022-08-19T02:23:48;7.63;;;6.93;;
15271;SDS011;7737;51.578;7.268;2022-08-19T02:26:16;8.70;;;7.90;;
15271;SDS011;7737;51.578;7.268;2022-08-19T02:28:44;8.60;;;7.90;;
15271;SDS011;7737;51.578;7.268;2022-08-19T02:31:12;9.48;;;8.57;;
15271;SDS011;7737;51.578;7.268;2022-08-19T02:33:41;8.82;;;8.13;;
15271;SDS011;7737;51.578;7.268;2022-08-19T02:36:08;9.02;;;8.23;;
15271;SDS011;7737;51.578;7.268;2022-08-19T02:38:35;8.57;;;7.55;;
15271;SDS011;7737;51.578;7.268;2022-08-19T02:41:03;7.97;;;7.28;;
15271;SDS011;7737;51.578;7.268;2022-08-19T02:43:33;7.72;;;7.13;;
15271;SDS011;7737;51.578;7.268;2022-08-19T02:46:01;9.20;;;8.40;;
15271;SDS011;7737;51.578;7.268;2022-08-19T02:48:28;10.93;;;8.95;;
15271;SDS011;7737;51.578;7.268;2022-08-19T02:50:56;9.20;;;8.32;;
15271;SDS011;7737;51.578;7.268;2022-08-19T02:53:23;11.50;;;8.90;;
15271;SDS011;7737;51.578;7.268;2022-08-19T02:55:51;11.32;;;8.75;;
15271;SDS011;7737;51.578;7.268;2022-08-19T02:58:18;9.65;;;8.75;;
15271;SDS011;7737;51.578;7.268;2022-08-19T03:00:47;9.50;;;8.60;;
15271;SDS011;7737;51.578;7.268;2022-08-19T03:03:14;8.80;;;7.93;;
15271;SDS011;7737;51.578;7.268;2022-08-19T03:05:41;9.27;;;8.38;;
15271;SDS011;7737;51.578;7.268;2022-08-19T03:08:09;8.90;;;8.10;;
15271;SDS011;7737;51.578;7.268;2022-08-19T03:10:40;9.20;;;8.35;;
15271;SDS011;7737;51.578;7.268;2022-08-19T03:13:10;8.85;;;8.05;;
15271;SDS011;7737;51.578;7.268;2022-08-19T03:15:38;9.70;;;8.80;;
15271;SDS011;7737;51.578;7.268;2022-08-19T03:18:06;9.45;;;8.65;;
15271;SDS011;7737;51.578;7.268;2022-08-19T03:20:32;9.60;;;8.77;;
15271;SDS011;7737;51.578;7.268;2022-08-19T03:22:59;10.25;;;9.02;;
15271;SDS011;7737;51.578;7.268;2022-08-19T03:25:27;9.52;;;8.73;;
15271;SDS011;7737;51.578;7.268;2022-08-19T03:27:53;9.52;;;8.73;;
15271;SDS011;7737;51.578;7.268;2022-08-19T03:30:20;9.07;;;8.27;;
15271;SDS011;7737;51.578;7.268;2022-08-19T03:32:46;10.43;;;9.52;;
15271;SDS011;7737;51.578;7.268;2022-08-19T03:35:13;8.77;;;8.07;;
15271;SDS011;7737;51.578;7.268;2022-08-19T03:37:39;10.20;;;9.30;;
15271;SDS011;7737;51.578;7.268;2022-08-19T03:40:06;9.88;;;9.13;;
15271;SDS011;7737;51.578;7.268;2022-08-19T03:42:35;9.55;;;8.75;;
15271;SDS011;7737;51.578;7.268;2022-08-19T03:45:02;9.45;;;8.65;;
15271;SDS011;7737;51.578;7.268;2022-08-19T03:47:29;9.38;;;8.45;;
15271;SDS011;7737;51.578;7.268;2022-08-19T03:49:56;9.43;;;8.60;;
15271;SDS011;7737;51.578;7.268;2022-08-19T03:52:22;9.75;;;8.82;;
15271;SDS011;7737;51.578;7.268;2022-08-19T03:54:49;9.05;;;8.32;;
15271;SDS011;7737;51.578;7.268;2022-08-19T03:57:16;9.70;;;8.73;;
15271;SDS011;7737;51.578;7.268;2022-08-19T03:59:44;10.10;;;9.07;;
15271;SDS011;7737;51.578;7.268;2022-08-19T04:02:11;9.63;;;8.73;;
15271;SDS011;7737;51.578;7.268;2022-08-19T04:04:39;10.80;;;9.90;;
15271;SDS011;7737;51.578;7.268;2022-08-19T04:07:08;11.70;;;10.70;;
15271;SDS011;7737;51.578;7.268;2022-08-19T04:09:35;11.77;;;10.68;;
15271;SDS011;7737;51.578;7.268;2022-08-19T04:12:02;11.50;;;10.50;;
15271;SDS011;7737;51.578;7.268;2022-08-19T04:14:31;10.85;;;9.90;;
15271;SDS011;7737;51.578;7.268;2022-08-19T04:17:00;10.27;;;9.27;;
15271;SDS011;7737;51.578;7.268;2022-08-19T04:19:30;10.20;;;9.30;;
15271;SDS011;7737;51.578;7.268;2022-08-19T04:21:57;10.60;;;9.60;;
15271;SDS011;7737;51.578;7.268;2022-08-19T04:24:24;10.05;;;9.18;;
15271;SDS011;7737;51.578;7.268;2022-08-19T04:26:50;9.80;;;8.68;;
15271;SDS011;7737;51.578;7.268;2022-08-19T04:29:18;10.82;;;9.73;;
15271;SDS011;7737;51.578;7.268;2022-08-19T04:31:47;9.60;;;8.70;;
15271;SDS011;7737;51.578;7.268;2022-08-19T04:34:16;9.95;;;9.05;;
15271;SDS011;7737;51.578;7.268;2022-08-19T04:36:47;9.48;;;8.57;;
15271;SDS011;7737;51.578;7.268;2022-08-19T04:39:17;10.60;;;9.57;;
15271;SDS011;7737;51.578;7.268;2022-08-19T04:41:46;10.13;;;9.32;;
15271;SDS011;7737;51.578;7.268;2022-08-19T04:44:30;9.63;;;8.80;;
15271;SDS011;7737;51.578;7.268;2022-08-19T04:46:57;9.43;;;8.63;;
15271;SDS011;7737;51.578;7.268;2022-08-19T04:49:25;9.40;;;8.50;;
15271;SDS011;7737;51.578;7.268;2022-08-19T04:51:52;10.95;;;9.02;;
15271;SDS011;7737;51.578;7.268;2022-08-19T04:54:20;9.82;;;8.82;;
15271;SDS011;7737;51.578;7.268;2022-08-19T04:56:48;10.43;;;9.43;;
15271;SDS011;7737;51.578;7.268;2022-08-19T04:59:16;11.02;;;9.25;;
15271;SDS011;7737;51.578;7.268;2022-08-19T05:01:43;9.10;;;8.30;;
15271;SDS011;7737;51.578;7.268;2022-08-19T05:04:14;10.73;;;9.55;;
15271;SDS011;7737;51.578;7.268;2022-08-19T05:06:43;9.95;;;8.95;;
15271;SDS011;7737;51.578;7.268;2022-08-19T05:09:10;11.65;;;9.75;;
15271;SDS011;7737;51.578;7.268;2022-08-19T05:11:37;10.50;;;9.07;;
15271;SDS011;7737;51.578;7.268;2022-08-19T05:14:04;9.07;;;8.18;;
15271;SDS011;7737;51.578;7.268;2022-08-19T05:16:31;10.15;;;9.13;;
15271;SDS011;7737;51.578;7.268;2022-08-19T05:18:58;10.73;;;9.68;;
15271;SDS011;7737;51.578;7.268;2022-08-19T05:21:42;10.05;;;9.10;;
15271;SDS011;7737;51.578;7.268;2022-08-19T05:24:28;10.20;;;9.13;;
15271;SDS011;7737;51.578;7.268;2022-08-19T05:26:55;10.52;;;9.50;;
15271;SDS011;7737;51.578;7.268;2022-08-19T05:29:23;10.18;;;9.15;;
15271;SDS011;7737;51.578;7.268;2022-08-19T05:31:53;11.55;;;9.70;;
15271;SDS011;7737;51.578;7.268;2022-08-19T05:34:21;11.27;;;9.90;;
15271;SDS011;7737;51.578;7.268;2022-08-19T05:36:51;11.02;;;9.68;;
15271;SDS011;7737;51.578;7.268;2022-08-19T05:39:22;10.65;;;9.65;;
15271;SDS011;7737;51.578;7.268;2022-08-19T05:41:52;10.63;;;9.70;;
15271;SDS011;7737;51.578;7.268;2022-08-19T05:44:22;12.93;;;11.60;;
15271;SDS011;7737;51.578;7.268;2022-08-19T05:46:50;14.43;;;13.13;;
15271;SDS011;7737;51.578;7.268;2022-08-19T05:49:19;12.32;;;11.15;;
15271;SDS011;7737;51.578;7.268;2022-08-19T05:51:48;12.55;;;11.45;;
15271;SDS011;7737;51.578;7.268;2022-08-19T05:54:16;14.02;;;12.75;;
15271;SDS011;7737;51.578;7.268;2022-08-19T05:56:44;13.90;;;12.50;;
15271;SDS011;7737;51.578;7.268;2022-08-19T05:59:13;12.98;;;11.73;;
15271;SDS011;7737;51.578;7.268;2022-08-19T06:01:41;15.40;;;14.00;;
15271;SDS011;7737;51.578;7.268;2022-08-19T06:04:11;16.95;;;15.32;;
15271;SDS011;7737;51.578;7.268;2022-08-19T06:06:38;18.27;;;16.45;;
15271;SDS011;7737;51.578;7.268;2022-08-19T06:09:06;18.25;;;16.55;;
15271;SDS011;7737;51.578;7.268;2022-08-19T06:11:38;19.45;;;16.95;;
15271;SDS011;7737;51.578;7.268;2022-08-19T06:14:07;19.20;;;17.23;;
15271;SDS011;7737;51.578;7.268;2022-08-19T06:16:35;19.98;;;18.15;;
15271;SDS011;7737;51.578;7.268;2022-08-19T06:19:04;20.95;;;19.00;;
15271;SDS011;7737;51.578;7.268;2022-08-19T06:21:33;21.98;;;19.88;;
15271;SDS011;7737;51.578;7.268;2022-08-19T06:24:03;23.33;;;20.92;;
15271;SDS011;7737;51.578;7.268;2022-08-19T06:26:31;23.38;;;21.08;;
15271;SDS011;7737;51.578;7.268;2022-08-19T06:29:00;21.08;;;19.08;;
15271;SDS011;7737;51.578;7.268;2022-08-19T06:31:27;23.15;;;20.73;;
15271;SDS011;7737;51.578;7.268;2022-08-19T06:33:58;22.83;;;20.42;;
15271;SDS011;7737;51.578;7.268;2022-08-19T06:36:27;20.67;;;18.52;;
15271;SDS011;7737;51.578;7.268;2022-08-19T06:38:59;21.30;;;18.75;;
15271;SDS011;7737;51.578;7.268;2022-08-19T06:41:26;20.30;;;18.45;;
15271;SDS011;7737;51.578;7.268;2022-08-19T06:43:53;20.83;;;18.67;;
15271;SDS011;7737;51.578;7.268;2022-08-19T06:46:22;20.48;;;18.40;;
15271;SDS011;7737;51.578;7.268;2022-08-19T06:48:49;20.05;;;17.58;;
15271;SDS011;7737;51.578;7.268;2022-08-19T06:51:18;19.95;;;17.85;;
15271;SDS011;7737;51.578;7.268;2022-08-19T06:53:45;19.08;;;17.13;;
15271;SDS011;7737;51.578;7.268;2022-08-19T06:56:12;19.38;;;17.48;;
15271;SDS011;7737;51.578;7.268;2022-08-19T06:58:39;16.50;;;14.75;;
15271;SDS011;7737;51.578;7.268;2022-08-19T07:01:07;18.33;;;16.20;;
15271;SDS011;7737;51.578;7.268;2022-08-19T07:03:36;19.25;;;16.83;;
15271;SDS011;7737;51.578;7.268;2022-08-19T07:06:04;19.05;;;17.05;;
15271;SDS011;7737;51.578;7.268;2022-08-19T07:08:33;18.50;;;16.63;;
15271;SDS011;7737;51.578;7.268;2022-08-19T07:11:01;20.42;;;17.33;;
15271;SDS011;7737;51.578;7.268;2022-08-19T07:13:28;18.33;;;16.42;;
15271;SDS011;7737;51.578;7.268;2022-08-19T07:15:57;18.48;;;16.52;;
15271;SDS011;7737;51.578;7.268;2022-08-19T07:18:24;19.10;;;17.10;;
15271;SDS011;7737;51.578;7.268;2022-08-19T07:21:01;18.63;;;16.75;;
15271;SDS011;7737;51.578;7.268;2022-08-19T07:23:28;18.25;;;15.65;;
15271;SDS011;7737;51.578;7.268;2022-08-19T07:25:55;19.02;;;16.77;;
15271;SDS011;7737;51.578;7.268;2022-08-19T07:28:22;17.80;;;15.85;;
15271;SDS011;7737;51.578;7.268;2022-08-19T07:30:50;21.45;;;16.92;;
15271;SDS011;7737;51.578;7.268;2022-08-19T07:33:16;18.02;;;16.15;;
15271;SDS011;7737;51.578;7.268;2022-08-19T07:35:43;18.48;;;16.52;;
15271;SDS011;7737;51.578;7.268;2022-08-19T07:38:11;18.50;;;16.55;;
15271;SDS011;7737;51.578;7.268;2022-08-19T07:40:38;18.50;;;15.73;;
15271;SDS011;7737;51.578;7.268;2022-08-19T07:43:06;16.73;;;15.02;;
15271;SDS011;7737;51.578;7.268;2022-08-19T07:45:33;16.90;;;15.23;;
15271;SDS011;7737;51.578;7.268;2022-08-19T07:47:59;16.52;;;14.95;;
15271;SDS011;7737;51.578;7.268;2022-08-19T07:50:26;17.08;;;15.38;;
15271;SDS011;7737;51.578;7.268;2022-08-19T07:52:52;18.02;;;16.17;;
15271;SDS011;7737;51.578;7.268;2022-08-19T07:55:22;18.67;;;15.85;;
15271;SDS011;7737;51.578;7.268;2022-08-19T07:57:50;15.50;;;14.00;;
15271;SDS011;7737;51.578;7.268;2022-08-19T08:00:18;15.10;;;13.75;;
15271;SDS011;7737;51.578;7.268;2022-08-19T08:02:45;15.30;;;13.80;;
15271;SDS011;7737;51.578;7.268;2022-08-19T08:05:11;17.15;;;14.68;;
15271;SDS011;7737;51.578;7.268;2022-08-19T08:07:55;15.70;;;14.07;;
15271;SDS011;7737;51.578;7.268;2022-08-19T08:10:41;18.30;;;16.35;;
15271;SDS011;7737;51.578;7.268;2022-08-19T08:13:07;16.75;;;15.20;;
15271;SDS011;7737;51.578;7.268;2022-08-19T08:15:34;17.23;;;14.98;;
15271;SDS011;7737;51.578;7.268;2022-08-19T08:18:03;17.33;;;15.63;;
15271;SDS011;7737;51.578;7.268;2022-08-19T08:20:29;17.45;;;15.63;;
15271;SDS011;7737;51.578;7.268;2022-08-19T08:22:56;16.30;;;14.88;;
15271;SDS011;7737;51.578;7.268;2022-08-19T08:25:42;17.38;;;15.73;;
15271;SDS011;7737;51.578;7.268;2022-08-19T08:28:10;18.63;;;16.73;;
15271;SDS011;7737;51.578;7.268;2022-08-19T08:30:36;16.08;;;14.07;;
15271;SDS011;7737;51.578;7.268;2022-08-19T08:33:06;18.60;;;16.80;;
15271;SDS011;7737;51.578;7.268;2022-08-19T08:35:33;18.85;;;17.15;;
15271;SDS011;7737;51.578;7.268;2022-08-19T08:37:59;17.35;;;15.40;;
15271;SDS011;7737;51.578;7.268;2022-08-19T08:40:28;20.48;;;16.63;;
15271;SDS011;7737;51.578;7.268;2022-08-19T08:43:02;16.77;;;15.07;;
15271;SDS011;7737;51.578;7.268;2022-08-19T08:45:33;16.52;;;14.27;;
15271;SDS011;7737;51.578;7.268;2022-08-19T08:48:04;14.95;;;13.70;;
15271;SDS011;7737;51.578;7.268;2022-08-19T08:50:39;14.88;;;13.35;;
15271;SDS011;7737;51.578;7.268;2022-08-19T08:53:09;15.25;;;13.90;;
15271;SDS011;7737;51.578;7.268;2022-08-19T08:55:40;14.13;;;12.73;;
15271;SDS011;7737;51.578;7.268;2022-08-19T08:58:09;14.07;;;12.68;;
15271;SDS011;7737;51.578;7.268;2022-08-19T09:00:43;12.55;;;11.18;;
15271;SDS011;7737;51.578;7.268;2022-08-19T09:03:14;13.30;;;12.00;;
15271;SDS011;7737;51.578;7.268;2022-08-19T09:05:53;11.88;;;10.82;;
15271;SDS011;7737;51.578;7.268;2022-08-19T09:08:28;13.38;;;12.18;;
15271;SDS011;7737;51.578;7.268;2022-08-19T09:11:06;13.02;;;11.73;;
15271;SDS011;7737;51.578;7.268;2022-08-19T09:13:39;12.68;;;11.43;;
15271;SDS011;7737;51.578;7.268;2022-08-19T09:16:12;13.50;;;12.27;;
15271;SDS011;7737;51.578;7.268;2022-08-19T09:18:42;14.70;;;13.40;;
15271;SDS011;7737;51.578;7.268;2022-08-19T09:21:12;13.40;;;12.15;;
15271;SDS011;7737;51.578;7.268;2022-08-19T09:23:39;13.80;;;12.50;;
15271;SDS011;7737;51.578;7.268;2022-08-19T09:26:07;14.40;;;13.10;;
15271;SDS011;7737;51.578;7.268;2022-08-19T09:28:39;13.63;;;12.32;;
15271;SDS011;7737;51.578;7.268;2022-08-19T09:31:08;12.07;;;10.88;;
15271;SDS011;7737;51.578;7.268;2022-08-19T09:33:35;10.98;;;9.77;;
15271;SDS011;7737;51.578;7.268;2022-08-19T09:36:03;13.63;;;12.32;;
15271;SDS011;7737;51.578;7.268;2022-08-19T09:38:32;11.50;;;10.32;;
15271;SDS011;7737;51.578;7.268;2022-08-19T09:41:01;11.73;;;10.35;;
15271;SDS011;7737;51.578;7.268;2022-08-19T09:43:29;15.10;;;13.57;;
15271;SDS011;7737;51.578;7.268;2022-08-19T09:45:58;13.95;;;12.57;;
15271;SDS011;7737;51.578;7.268;2022-08-19T09:48:25;13.70;;;12.50;;
15271;SDS011;7737;51.578;7.268;2022-08-19T09:50:52;13.93;;;12.73;;
15271;SDS011;7737;51.578;7.268;2022-08-19T09:53:19;13.15;;;11.90;;
15271;SDS011;7737;51.578;7.268;2022-08-19T09:55:47;13.43;;;12.13;;
15271;SDS011;7737;51.578;7.268;2022-08-19T09:58:14;13.10;;;11.90;;
15271;SDS011;7737;51.578;7.268;2022-08-19T10:00:40;13.88;;;12.52;;
15271;SDS011;7737;51.578;7.268;2022-08-19T10:03:08;14.32;;;13.13;;
15271;SDS011;7737;51.578;7.268;2022-08-19T10:05:36;14.13;;;12.70;;
15271;SDS011;7737;51.578;7.268;2022-08-19T10:08:15;14.05;;;12.68;;
15271;SDS011;7737;51.578;7.268;2022-08-19T10:10:44;13.38;;;12.18;;
15271;SDS011;7737;51.578;7.268;2022-08-19T10:13:10;13.50;;;12.27;;
15271;SDS011;7737;51.578;7.268;2022-08-19T10:15:37;12.73;;;11.32;;
15271;SDS011;7737;51.578;7.268;2022-08-19T10:18:05;14.73;;;13.43;;
15271;SDS011;7737;51.578;7.268;2022-08-19T10:20:34;14.00;;;12.73;;
15271;SDS011;7737;51.578;7.268;2022-08-19T10:23:02;13.68;;;12.38;;
15271;SDS011;7737;51.578;7.268;2022-08-19T10:25:28;14.13;;;12.73;;
15271;SDS011;7737;51.578;7.268;2022-08-19T10:27:55;14.52;;;13.23;;
15271;SDS011;7737;51.578;7.268;2022-08-19T10:30:22;14.85;;;13.68;;
15271;SDS011;7737;51.578;7.268;2022-08-19T10:32:49;13.75;;;12.60;;
15271;SDS011;7737;51.578;7.268;2022-08-19T10:35:16;16.67;;;15.18;;
15271;SDS011;7737;51.578;7.268;2022-08-19T10:37:44;13.00;;;11.55;;
15271;SDS011;7737;51.578;7.268;2022-08-19T10:40:11;23.20;;;11.10;;
15271;SDS011;7737;51.578;7.268;2022-08-19T10:42:38;12.30;;;11.07;;
15271;SDS011;7737;51.578;7.268;2022-08-19T10:45:05;12.35;;;10.23;;
15271;SDS011;7737;51.578;7.268;2022-08-19T10:47:32;11.52;;;10.32;;
15271;SDS011;7737;51.578;7.268;2022-08-19T10:49:59;12.68;;;11.40;;
15271;SDS011;7737;51.578;7.268;2022-08-19T10:52:45;10.18;;;9.13;;
15271;SDS011;7737;51.578;7.268;2022-08-19T10:55:13;10.18;;;9.27;;
15271;SDS011;7737;51.578;7.268;2022-08-19T10:57:57;11.50;;;8.45;;
15271;SDS011;7737;51.578;7.268;2022-08-19T11:00:23;9.93;;;9.02;;
15271;SDS011;7737;51.578;7.268;2022-08-19T11:02:51;10.40;;;9.43;;
15271;SDS011;7737;51.578;7.268;2022-08-19T11:05:18;9.90;;;9.10;;
15271;SDS011;7737;51.578;7.268;2022-08-19T11:07:48;10.10;;;9.30;;
15271;SDS011;7737;51.578;7.268;2022-08-19T11:10:15;8.48;;;7.75;;
15271;SDS011;7737;51.578;7.268;2022-08-19T11:12:44;9.73;;;8.73;;
15271;SDS011;7737;51.578;7.268;2022-08-19T11:15:11;9.57;;;8.68;;
15271;SDS011;7737;51.578;7.268;2022-08-19T11:17:38;11.30;;;10.30;;
15271;SDS011;7737;51.578;7.268;2022-08-19T11:20:08;9.30;;;8.38;;
15271;SDS011;7737;51.578;7.268;2022-08-19T11:22:35;8.60;;;7.90;;
15271;SDS011;7737;51.578;7.268;2022-08-19T11:25:04;6.95;;;6.45;;
15271;SDS011;7737;51.578;7.268;2022-08-19T11:27:31;9.77;;;8.77;;
15271;SDS011;7737;51.578;7.268;2022-08-19T11:29:58;8.45;;;7.65;;
15271;SDS011;7737;51.578;7.268;2022-08-19T11:32:25;8.30;;;7.57;;
15271;SDS011;7737;51.578;7.268;2022-08-19T11:34:52;13.05;;;11.88;;
15271;SDS011;7737;51.578;7.268;2022-08-19T11:37:19;12.68;;;11.57;;
15271;SDS011;7737;51.578;7.268;2022-08-19T11:39:46;13.23;;;11.93;;
15271;SDS011;7737;51.578;7.268;2022-08-19T11:42:14;11.23;;;10.13;;
15271;SDS011;7737;51.578;7.268;2022-08-19T11:44:58;12.13;;;11.02;;
15271;SDS011;7737;51.578;7.268;2022-08-19T11:47:24;11.40;;;10.25;;
15271;SDS011;7737;51.578;7.268;2022-08-19T11:49:51;10.65;;;9.85;;
15271;SDS011;7737;51.578;7.268;2022-08-19T11:52:18;9.80;;;8.90;;
15271;SDS011;7737;51.578;7.268;2022-08-19T11:54:45;9.10;;;8.20;;
15271;SDS011;7737;51.578;7.268;2022-08-19T11:57:11;10.85;;;9.88;;
15271;SDS011;7737;51.578;7.268;2022-08-19T11:59:46;8.10;;;7.45;;
15271;SDS011;7737;51.578;7.268;2022-08-19T12:02:14;10.18;;;9.27;;
15271;SDS011;7737;51.578;7.268;2022-08-19T12:04:40;9.68;;;8.88;;
15271;SDS011;7737;51.578;7.268;2022-08-19T12:07:07;10.98;;;9.98;;
15271;SDS011;7737;51.578;7.268;2022-08-19T12:09:33;10.07;;;9.23;;
15271;SDS011;7737;51.578;7.268;2022-08-19T12:12:00;12.35;;;11.02;;
15271;SDS011;7737;51.578;7.268;2022-08-19T12:14:27;10.57;;;9.55;;
15271;SDS011;7737;51.578;7.268;2022-08-19T12:16:57;9.73;;;8.93;;
15271;SDS011;7737;51.578;7.268;2022-08-19T12:19:23;10.65;;;8.20;;
15271;SDS011;7737;51.578;7.268;2022-08-19T12:21:50;10.75;;;9.65;;
15271;SDS011;7737;51.578;7.268;2022-08-19T12:24:18;12.57;;;11.32;;
15271;SDS011;7737;51.578;7.268;2022-08-19T12:26:48;13.25;;;12.02;;
15271;SDS011;7737;51.578;7.268;2022-08-19T12:29:15;10.73;;;9.63;;
15271;SDS011;7737;51.578;7.268;2022-08-19T12:31:42;12.35;;;11.15;;
15271;SDS011;7737;51.578;7.268;2022-08-19T12:34:09;12.13;;;11.02;;
15271;SDS011;7737;51.578;7.268;2022-08-19T12:36:37;10.27;;;9.38;;
15271;SDS011;7737;51.578;7.268;2022-08-19T12:39:04;10.02;;;9.23;;
15271;SDS011;7737;51.578;7.268;2022-08-19T12:41:33;7.43;;;6.72;;
15271;SDS011;7737;51.578;7.268;2022-08-19T12:44:00;6.22;;;5.75;;
15271;SDS011;7737;51.578;7.268;2022-08-19T12:46:26;6.63;;;6.00;;
15271;SDS011;7737;51.578;7.268;2022-08-19T12:48:53;7.78;;;7.00;;
15271;SDS011;7737;51.578;7.268;2022-08-19T12:51:21;7.50;;;6.70;;
15271;SDS011;7737;51.578;7.268;2022-08-19T12:53:47;9.52;;;8.63;;
15271;SDS011;7737;51.578;7.268;2022-08-19T12:56:15;8.95;;;6.97;;
15271;SDS011;7737;51.578;7.268;2022-08-19T12:58:42;8.38;;;7.68;;
15271;SDS011;7737;51.578;7.268;2022-08-19T13:01:10;9.35;;;7.60;;
15271;SDS011;7737;51.578;7.268;2022-08-19T13:03:38;8.05;;;7.32;;
15271;SDS011;7737;51.578;7.268;2022-08-19T13:06:05;8.75;;;8.05;;
15271;SDS011;7737;51.578;7.268;2022-08-19T13:08:33;8.73;;;7.90;;
15271;SDS011;7737;51.578;7.268;2022-08-19T13:11:06;8.60;;;7.80;;
15271;SDS011;7737;51.578;7.268;2022-08-19T13:13:35;8.75;;;7.90;;
15271;SDS011;7737;51.578;7.268;2022-08-19T13:16:02;8.60;;;7.90;;
15271;SDS011;7737;51.578;7.268;2022-08-19T13:18:29;8.05;;;7.22;;
15271;SDS011;7737;51.578;7.268;2022-08-19T13:20:56;8.18;;;7.45;;
15271;SDS011;7737;51.578;7.268;2022-08-19T13:23:23;8.43;;;7.57;;
15271;SDS011;7737;51.578;7.268;2022-08-19T13:25:56;8.60;;;7.43;;
15271;SDS011;7737;51.578;7.268;2022-08-19T13:28:23;8.43;;;7.63;;
15271;SDS011;7737;51.578;7.268;2022-08-19T13:30:50;9.93;;;7.47;;
15271;SDS011;7737;51.578;7.268;2022-08-19T13:33:34;8.60;;;7.90;;
15271;SDS011;7737;51.578;7.268;2022-08-19T13:36:01;8.00;;;7.30;;
15271;SDS011;7737;51.578;7.268;2022-08-19T13:38:31;7.30;;;6.60;;
15271;SDS011;7737;51.578;7.268;2022-08-19T13:41:03;7.53;;;6.93;;
15271;SDS011;7737;51.578;7.268;2022-08-19T13:43:30;7.63;;;6.80;;
15271;SDS011;7737;51.578;7.268;2022-08-19T13:45:57;7.07;;;6.47;;
15271;SDS011;7737;51.578;7.268;2022-08-19T13:48:24;7.53;;;6.72;;
15271;SDS011;7737;51.578;7.268;2022-08-19T13:50:52;6.20;;;5.78;;
15271;SDS011;7737;51.578;7.268;2022-08-19T13:53:19;6.35;;;5.70;;
15271;SDS011;7737;51.578;7.268;2022-08-19T13:55:45;5.72;;;5.07;;
15271;SDS011;7737;51.578;7.268;2022-08-19T13:58:13;5.65;;;5.15;;
15271;SDS011;7737;51.578;7.268;2022-08-19T14:00:41;6.13;;;4.72;;
15271;SDS011;7737;51.578;7.268;2022-08-19T14:03:10;5.85;;;5.25;;
15271;SDS011;7737;51.578;7.268;2022-08-19T14:05:37;7.32;;;5.00;;
15271;SDS011;7737;51.578;7.268;2022-08-19T14:08:04;7.13;;;4.85;;
15271;SDS011;7737;51.578;7.268;2022-08-19T14:10:31;5.05;;;4.45;;
15271;SDS011;7737;51.578;7.268;2022-08-19T14:12:58;5.43;;;4.90;;
15271;SDS011;7737;51.578;7.268;2022-08-19T14:15:28;6.55;;;4.25;;
15271;SDS011;7737;51.578;7.268;2022-08-19T14:17:55;5.80;;;4.60;;
15271;SDS011;7737;51.578;7.268;2022-08-19T14:20:22;7.35;;;4.45;;
15271;SDS011;7737;51.578;7.268;2022-08-19T14:22:49;5.97;;;4.30;;
15271;SDS011;7737;51.578;7.268;2022-08-19T14:25:16;5.65;;;4.10;;
15271;SDS011;7737;51.578;7.268;2022-08-19T14:27:45;5.90;;;4.25;;
15271;SDS011;7737;51.578;7.268;2022-08-19T14:30:13;5.82;;;4.10;;
15271;SDS011;7737;51.578;7.268;2022-08-19T14:32:43;7.43;;;4.85;;
15271;SDS011;7737;51.578;7.268;2022-08-19T14:35:10;5.25;;;4.57;;
15271;SDS011;7737;51.578;7.268;2022-08-19T14:37:39;5.30;;;4.35;;
15271;SDS011;7737;51.578;7.268;2022-08-19T14:40:06;4.85;;;3.80;;
15271;SDS011;7737;51.578;7.268;2022-08-19T14:42:34;9.70;;;4.20;;
15271;SDS011;7737;51.578;7.268;2022-08-19T14:45:01;4.88;;;3.78;;
15271;SDS011;7737;51.578;7.268;2022-08-19T14:47:29;4.10;;;3.70;;
15271;SDS011;7737;51.578;7.268;2022-08-19T14:49:58;5.10;;;4.43;;
15271;SDS011;7737;51.578;7.268;2022-08-19T14:52:24;3.78;;;3.35;;
15271;SDS011;7737;51.578;7.268;2022-08-19T14:54:51;7.90;;;3.80;;